UAE706 FSIA-OMDB
Flight info
| Callsign | UAE706 |
|---|---|
| Flight time | N/A |
| Altitude | 37000 |
| Route | DULMA1B DULMA T145 GEPAX DCT IMTIP UM314 SUHIL R401 PEDOG Q308 KIPOK Q568 IMPED |
| Aircraft | B77W/H-SDE1E2E3FGHIJ2J3J4J5M1RWXY/LB1D1 |
Departure
| Time | 2026-04-26 11:50 |
|---|---|
| Airport | Seychelles International Airport (FSIA) |
Arrival
| Time | N/A |
|---|---|
| Airport | Dubai International Airport (OMDB) |
| Time | Latitude | Longitude | Altitude | Speed | Heading |
|---|---|---|---|---|---|
| 2026-04-26 11:06 | -4.67029 | 55.51186 | 23 ft | 0 kts | 215° |
| 2026-04-26 11:42 | -4.66991 | 55.51250 | 21 ft | 2 kts | 285° |
| 2026-04-26 11:43 | -4.66996 | 55.51263 | 21 ft | 1 kts | 302° |
| 2026-04-26 11:43 | -4.67000 | 55.51268 | 21 ft | 0 kts | 305° |
| 2026-04-26 11:46 | -4.66999 | 55.51267 | 21 ft | 1 kts | 305° |
| 2026-04-26 11:46 | -4.66987 | 55.51249 | 20 ft | 5 kts | 303° |
| 2026-04-26 11:46 | -4.66964 | 55.51215 | 20 ft | 5 kts | 303° |
| 2026-04-26 11:46 | -4.66938 | 55.51194 | 20 ft | 4 kts | 346° |
| 2026-04-26 11:47 | -4.66902 | 55.51195 | 20 ft | 5 kts | 2° |
| 2026-04-26 11:47 | -4.66863 | 55.51178 | 20 ft | 6 kts | 310° |
| 2026-04-26 11:47 | -4.66836 | 55.51137 | 20 ft | 8 kts | 304° |
| 2026-04-26 11:47 | -4.66810 | 55.51099 | 20 ft | 9 kts | 304° |
| 2026-04-26 11:48 | -4.66779 | 55.51054 | 20 ft | 1 kts | 305° |
| 2026-04-26 11:48 | -4.66772 | 55.51047 | 20 ft | 3 kts | 325° |
| 2026-04-26 11:48 | -4.66730 | 55.51047 | 20 ft | 7 kts | 19° |
| 2026-04-26 11:48 | -4.66691 | 55.51071 | 20 ft | 5 kts | 37° |
| 2026-04-26 11:49 | -4.66681 | 55.51097 | 20 ft | 3 kts | 102° |
| 2026-04-26 11:49 | -4.66694 | 55.51127 | 20 ft | 5 kts | 119° |
| 2026-04-26 11:49 | -4.66723 | 55.51172 | 20 ft | 15 kts | 124° |
| 2026-04-26 11:49 | -4.66907 | 55.51434 | 20 ft | 80 kts | 125° |
| 2026-04-26 11:50 | -4.67357 | 55.52073 | 21 ft | 142 kts | 124° |
| 2026-04-26 11:50 | -4.68031 | 55.53038 | 125 ft | 185 kts | 126° |
| 2026-04-26 11:50 | -4.68762 | 55.54116 | 674 ft | 193 kts | 125° |
| 2026-04-26 11:50 | -4.69539 | 55.55210 | 1391 ft | 195 kts | 127° |
| 2026-04-26 11:51 | -4.70364 | 55.56372 | 1636 ft | 215 kts | 127° |
| 2026-04-26 11:51 | -4.71273 | 55.57666 | 1868 ft | 237 kts | 126° |
| 2026-04-26 11:51 | -4.72264 | 55.59083 | 2202 ft | 259 kts | 126° |
| 2026-04-26 11:51 | -4.73311 | 55.60611 | 2769 ft | 270 kts | 121° |
| 2026-04-26 11:52 | -4.73861 | 55.62392 | 3542 ft | 273 kts | 93° |
| 2026-04-26 11:52 | -4.73522 | 55.64258 | 4165 ft | 280 kts | 64° |
| 2026-04-26 11:52 | -4.72286 | 55.65757 | 4885 ft | 281 kts | 33° |
| 2026-04-26 11:52 | -4.70480 | 55.66472 | 5589 ft | 282 kts | 7° |
| 2026-04-26 11:53 | -4.68532 | 55.66769 | 6307 ft | 284 kts | 15° |
| 2026-04-26 11:53 | -4.66779 | 55.67657 | 6939 ft | 289 kts | 36° |
| 2026-04-26 11:53 | -4.65292 | 55.69020 | 7681 ft | 291 kts | 47° |
| 2026-04-26 11:54 | -4.62662 | 55.72144 | 9051 ft | 296 kts | 50° |
| 2026-04-26 11:54 | -4.61339 | 55.73747 | 9705 ft | 300 kts | 49° |
| 2026-04-26 11:54 | -4.59998 | 55.75365 | 9954 ft | 302 kts | 50° |
| 2026-04-26 11:54 | -4.58649 | 55.76992 | 9974 ft | 299 kts | 50° |
| 2026-04-26 11:55 | -4.57269 | 55.78653 | 9975 ft | 318 kts | 49° |
| 2026-04-26 11:55 | -4.55784 | 55.80441 | 9898 ft | 349 kts | 49° |
| 2026-04-26 11:55 | -4.54173 | 55.82381 | 10086 ft | 369 kts | 50° |
| 2026-04-26 11:55 | -4.52495 | 55.84401 | 10418 ft | 383 kts | 50° |
| 2026-04-26 11:56 | -4.50766 | 55.86484 | 11140 ft | 386 kts | 50° |
| 2026-04-26 11:56 | -4.49066 | 55.88533 | 11931 ft | 386 kts | 50° |
| 2026-04-26 11:56 | -4.47342 | 55.90604 | 12658 ft | 388 kts | 49° |
| 2026-04-26 11:56 | -4.45405 | 55.92495 | 13340 ft | 391 kts | 38° |
| 2026-04-26 11:57 | -4.43150 | 55.94013 | 14053 ft | 393 kts | 28° |
| 2026-04-26 11:57 | -4.40607 | 55.95121 | 14748 ft | 397 kts | 18° |
| 2026-04-26 11:57 | -4.37916 | 55.95744 | 15432 ft | 401 kts | 8° |
| 2026-04-26 11:57 | -4.35089 | 55.95901 | 16075 ft | 406 kts | 1° |
| 2026-04-26 11:58 | -4.32243 | 55.95893 | 16732 ft | 410 kts | 1° |
| 2026-04-26 11:58 | -4.29391 | 55.95879 | 17332 ft | 414 kts | 1° |
| 2026-04-26 11:58 | -4.26462 | 55.95866 | 17883 ft | 420 kts | 1° |
| 2026-04-26 11:58 | -4.23509 | 55.95855 | 18431 ft | 425 kts | 1° |
| 2026-04-26 11:59 | -4.20500 | 55.95844 | 18988 ft | 430 kts | 1° |
| 2026-04-26 11:59 | -4.17499 | 55.95835 | 19504 ft | 435 kts | 0° |
| 2026-04-26 11:59 | -4.14435 | 55.95826 | 20019 ft | 440 kts | 0° |
| 2026-04-26 11:59 | -4.11335 | 55.95816 | 20524 ft | 445 kts | 0° |
| 2026-04-26 12:00 | -4.08202 | 55.95808 | 21070 ft | 448 kts | 0° |
| 2026-04-26 12:00 | -4.05080 | 55.95799 | 21570 ft | 452 kts | 360° |
| 2026-04-26 12:00 | -4.01909 | 55.95790 | 22069 ft | 456 kts | 360° |
| 2026-04-26 12:00 | -3.98677 | 55.95782 | 22566 ft | 460 kts | 360° |
| 2026-04-26 12:01 | -3.95479 | 55.95773 | 23088 ft | 462 kts | 360° |
| 2026-04-26 12:01 | -3.92218 | 55.95764 | 23579 ft | 466 kts | 359° |
| 2026-04-26 12:01 | -3.88958 | 55.95756 | 24062 ft | 469 kts | 359° |
| 2026-04-26 12:01 | -3.85674 | 55.95747 | 24545 ft | 472 kts | 359° |
| 2026-04-26 12:02 | -3.82367 | 55.95739 | 25016 ft | 475 kts | 359° |
| 2026-04-26 12:02 | -3.79017 | 55.95730 | 25449 ft | 480 kts | 359° |
| 2026-04-26 12:02 | -3.75666 | 55.95721 | 25921 ft | 483 kts | 359° |
| 2026-04-26 12:02 | -3.72316 | 55.95712 | 26378 ft | 486 kts | 359° |
| 2026-04-26 12:03 | -3.68891 | 55.95703 | 26844 ft | 489 kts | 359° |
| 2026-04-26 12:03 | -3.65464 | 55.95694 | 27315 ft | 492 kts | 359° |
| 2026-04-26 12:03 | -3.62038 | 55.95686 | 27765 ft | 495 kts | 359° |
| 2026-04-26 12:03 | -3.58542 | 55.95676 | 28214 ft | 499 kts | 359° |
| 2026-04-26 12:04 | -3.55084 | 55.95667 | 28678 ft | 501 kts | 359° |
| 2026-04-26 12:04 | -3.51571 | 55.95658 | 29161 ft | 504 kts | 359° |
| 2026-04-26 12:04 | -3.48051 | 55.95649 | 29882 ft | 500 kts | 359° |
| 2026-04-26 12:04 | -3.44615 | 55.95641 | 30777 ft | 493 kts | 359° |
| 2026-04-26 12:05 | -3.41198 | 55.95633 | 31676 ft | 485 kts | 359° |
| 2026-04-26 12:05 | -3.37814 | 55.95624 | 32457 ft | 479 kts | 359° |
| 2026-04-26 12:05 | -3.34466 | 55.95615 | 33182 ft | 475 kts | 359° |
| 2026-04-26 12:05 | -3.31144 | 55.95607 | 33793 ft | 474 kts | 359° |
| 2026-04-26 12:06 | -3.27842 | 55.95598 | 34373 ft | 472 kts | 359° |
| 2026-04-26 12:06 | -3.24514 | 55.95589 | 34958 ft | 470 kts | 359° |
| 2026-04-26 12:06 | -3.21223 | 55.95581 | 35549 ft | 468 kts | 359° |
| 2026-04-26 12:06 | -3.17921 | 55.95572 | 36071 ft | 466 kts | 359° |
| 2026-04-26 12:07 | -3.14627 | 55.95564 | 36538 ft | 466 kts | 359° |
| 2026-04-26 12:07 | -3.11362 | 55.95555 | 36833 ft | 467 kts | 359° |
| 2026-04-26 12:07 | -3.08098 | 55.95546 | 36828 ft | 467 kts | 359° |
| 2026-04-26 12:08 | -3.01517 | 55.95529 | 36826 ft | 465 kts | 359° |
| 2026-04-26 12:08 | -2.94990 | 55.95512 | 36825 ft | 464 kts | 359° |
| 2026-04-26 12:09 | -2.88518 | 55.95496 | 36826 ft | 464 kts | 359° |
| 2026-04-26 12:09 | -2.82063 | 55.95479 | 36826 ft | 464 kts | 359° |
| 2026-04-26 12:10 | -2.75572 | 55.95462 | 36828 ft | 464 kts | 359° |
| 2026-04-26 12:10 | -2.69061 | 55.95445 | 36829 ft | 464 kts | 359° |
| 2026-04-26 12:11 | -2.62587 | 55.95429 | 36827 ft | 464 kts | 359° |
| 2026-04-26 12:11 | -2.56080 | 55.95412 | 36823 ft | 464 kts | 359° |
| 2026-04-26 12:12 | -2.49618 | 55.95395 | 36823 ft | 464 kts | 359° |
| 2026-04-26 12:12 | -2.43115 | 55.95379 | 36826 ft | 464 kts | 359° |
| 2026-04-26 12:13 | -2.36650 | 55.95362 | 36823 ft | 462 kts | 359° |
| 2026-04-26 12:13 | -2.30182 | 55.95345 | 36830 ft | 463 kts | 359° |
| 2026-04-26 12:14 | -2.23738 | 55.95329 | 36822 ft | 464 kts | 359° |
| 2026-04-26 12:14 | -2.17278 | 55.94827 | 36825 ft | 463 kts | 349° |
| 2026-04-26 12:15 | -2.10923 | 55.93652 | 36821 ft | 462 kts | 348° |
| 2026-04-26 12:15 | -2.04613 | 55.92477 | 36823 ft | 462 kts | 348° |
| 2026-04-26 12:16 | -1.98263 | 55.91296 | 36825 ft | 461 kts | 348° |
| 2026-04-26 12:16 | -1.91948 | 55.90122 | 36824 ft | 460 kts | 348° |
| 2026-04-26 12:17 | -1.85603 | 55.88944 | 36829 ft | 462 kts | 348° |
| 2026-04-26 12:17 | -1.79252 | 55.87765 | 36827 ft | 461 kts | 348° |
| 2026-04-26 12:18 | -1.72920 | 55.86589 | 36826 ft | 461 kts | 348° |
| 2026-04-26 12:18 | -1.66580 | 55.85413 | 36828 ft | 461 kts | 348° |
| 2026-04-26 12:19 | -1.60272 | 55.84242 | 36827 ft | 460 kts | 348° |
| 2026-04-26 12:19 | -1.53933 | 55.83066 | 36828 ft | 461 kts | 348° |
| 2026-04-26 12:20 | -1.47567 | 55.81884 | 36826 ft | 461 kts | 348° |
| 2026-04-26 12:20 | -1.41207 | 55.80705 | 36826 ft | 461 kts | 348° |
| 2026-04-26 12:21 | -1.34878 | 55.79530 | 36825 ft | 461 kts | 348° |
| 2026-04-26 12:21 | -1.28540 | 55.78354 | 36824 ft | 460 kts | 348° |
| 2026-04-26 12:22 | -1.22206 | 55.77179 | 36824 ft | 460 kts | 348° |
| 2026-04-26 12:22 | -1.15913 | 55.76012 | 36823 ft | 459 kts | 348° |
| 2026-04-26 12:23 | -1.09565 | 55.74834 | 36824 ft | 461 kts | 348° |
| 2026-04-26 12:23 | -1.03263 | 55.73666 | 36826 ft | 460 kts | 348° |
| 2026-04-26 12:24 | -0.96920 | 55.72489 | 36826 ft | 460 kts | 348° |
| 2026-04-26 12:24 | -0.90599 | 55.71316 | 36829 ft | 460 kts | 348° |
| 2026-04-26 12:25 | -0.81123 | 55.69559 | 36838 ft | 459 kts | 348° |
| 2026-04-26 12:25 | -0.74770 | 55.68381 | 36844 ft | 460 kts | 348° |
| 2026-04-26 12:26 | -0.68451 | 55.67209 | 36844 ft | 460 kts | 349° |
| 2026-04-26 12:26 | -0.62134 | 55.66037 | 36847 ft | 461 kts | 349° |
| 2026-04-26 12:27 | -0.55774 | 55.64858 | 36846 ft | 460 kts | 349° |
| 2026-04-26 12:27 | -0.49472 | 55.63689 | 36845 ft | 460 kts | 349° |
| 2026-04-26 12:28 | -0.43097 | 55.62507 | 36846 ft | 461 kts | 349° |
| 2026-04-26 12:28 | -0.36771 | 55.61334 | 36846 ft | 461 kts | 349° |
| 2026-04-26 12:29 | -0.30439 | 55.60160 | 36846 ft | 462 kts | 349° |
| 2026-04-26 12:30 | -0.20963 | 55.58403 | 36846 ft | 463 kts | 349° |
| 2026-04-26 12:30 | -0.14560 | 55.57216 | 36846 ft | 463 kts | 349° |
| 2026-04-26 12:31 | -0.05039 | 55.55450 | 36832 ft | 463 kts | 349° |
| 2026-04-26 12:31 | 0.01300 | 55.54275 | 36824 ft | 463 kts | 349° |
| 2026-04-26 12:32 | 0.07663 | 55.53095 | 36824 ft | 464 kts | 349° |
| 2026-04-26 12:33 | 0.17236 | 55.51320 | 36827 ft | 464 kts | 349° |
| 2026-04-26 12:33 | 0.23627 | 55.50135 | 36828 ft | 465 kts | 349° |
| 2026-04-26 12:34 | 0.29997 | 55.48954 | 36827 ft | 464 kts | 349° |
| 2026-04-26 12:34 | 0.36354 | 55.47775 | 36826 ft | 463 kts | 349° |
| 2026-04-26 12:35 | 0.42748 | 55.46590 | 36826 ft | 463 kts | 349° |
| 2026-04-26 12:35 | 0.49105 | 55.45410 | 36827 ft | 464 kts | 349° |
| 2026-04-26 12:36 | 0.55487 | 55.44227 | 36826 ft | 465 kts | 349° |
| 2026-04-26 12:36 | 0.61866 | 55.43044 | 36825 ft | 465 kts | 349° |
| 2026-04-26 12:37 | 0.68204 | 55.41869 | 36832 ft | 465 kts | 349° |
| 2026-04-26 12:37 | 0.74609 | 55.40681 | 36841 ft | 465 kts | 349° |
| 2026-04-26 12:38 | 0.80976 | 55.39500 | 36844 ft | 465 kts | 349° |
| 2026-04-26 12:38 | 0.87375 | 55.38313 | 36844 ft | 465 kts | 349° |
| 2026-04-26 12:39 | 0.93753 | 55.37130 | 36846 ft | 466 kts | 349° |
| 2026-04-26 12:39 | 1.00128 | 55.35948 | 36846 ft | 467 kts | 349° |
| 2026-04-26 12:40 | 1.06581 | 55.34751 | 36846 ft | 466 kts | 349° |
| 2026-04-26 12:40 | 1.12997 | 55.33561 | 36850 ft | 466 kts | 349° |
| 2026-04-26 12:41 | 1.19400 | 55.32373 | 36849 ft | 466 kts | 349° |
| 2026-04-26 12:41 | 1.25797 | 55.31187 | 36848 ft | 465 kts | 349° |
| 2026-04-26 12:42 | 1.32221 | 55.29995 | 36849 ft | 466 kts | 349° |
| 2026-04-26 12:42 | 1.38684 | 55.29303 | 36847 ft | 465 kts | 355° |
| 2026-04-26 12:43 | 1.45209 | 55.28834 | 36848 ft | 466 kts | 355° |
| 2026-04-26 12:43 | 1.51708 | 55.28364 | 36848 ft | 465 kts | 355° |
| 2026-04-26 12:44 | 1.58174 | 55.27895 | 36849 ft | 466 kts | 355° |
| 2026-04-26 12:44 | 1.64653 | 55.27423 | 36849 ft | 465 kts | 355° |
| 2026-04-26 12:45 | 1.71154 | 55.26950 | 36847 ft | 467 kts | 355° |
| 2026-04-26 12:45 | 1.77626 | 55.26479 | 36847 ft | 467 kts | 355° |
| 2026-04-26 12:46 | 1.84133 | 55.26004 | 36849 ft | 467 kts | 355° |
| 2026-04-26 12:46 | 1.90627 | 55.25531 | 36846 ft | 467 kts | 355° |
| 2026-04-26 12:47 | 1.97151 | 55.25055 | 36846 ft | 468 kts | 355° |
| 2026-04-26 12:47 | 2.03648 | 55.24582 | 36851 ft | 466 kts | 355° |
| 2026-04-26 12:48 | 2.10154 | 55.24107 | 36846 ft | 467 kts | 355° |
| 2026-04-26 12:48 | 2.16640 | 55.23634 | 36839 ft | 465 kts | 355° |
| 2026-04-26 12:49 | 2.23104 | 55.23162 | 36842 ft | 466 kts | 355° |
| 2026-04-26 12:49 | 2.29614 | 55.22687 | 36844 ft | 465 kts | 355° |
| 2026-04-26 12:50 | 2.36073 | 55.22216 | 36849 ft | 465 kts | 355° |
| 2026-04-26 12:50 | 2.42533 | 55.21745 | 36848 ft | 464 kts | 355° |
| 2026-04-26 12:51 | 2.48985 | 55.21274 | 36850 ft | 463 kts | 354° |
| 2026-04-26 12:51 | 2.55476 | 55.20800 | 36846 ft | 464 kts | 355° |
| 2026-04-26 12:52 | 2.61917 | 55.20330 | 36849 ft | 463 kts | 354° |
| 2026-04-26 12:52 | 2.68351 | 55.19861 | 36847 ft | 463 kts | 354° |
| 2026-04-26 12:53 | 2.74804 | 55.19389 | 36847 ft | 461 kts | 354° |
| 2026-04-26 12:53 | 2.81223 | 55.18921 | 36848 ft | 463 kts | 354° |
| 2026-04-26 12:54 | 2.87677 | 55.18449 | 36848 ft | 463 kts | 354° |
| 2026-04-26 12:54 | 2.94111 | 55.17979 | 36846 ft | 463 kts | 354° |
| 2026-04-26 12:55 | 3.00557 | 55.17509 | 36845 ft | 461 kts | 354° |
| 2026-04-26 12:55 | 3.06992 | 55.17039 | 36845 ft | 462 kts | 354° |
| 2026-04-26 12:56 | 3.13414 | 55.16570 | 36850 ft | 460 kts | 354° |
| 2026-04-26 12:56 | 3.19835 | 55.16100 | 36848 ft | 461 kts | 354° |
| 2026-04-26 12:57 | 3.26295 | 55.15628 | 36848 ft | 463 kts | 354° |
| 2026-04-26 12:57 | 3.32729 | 55.15158 | 36849 ft | 462 kts | 354° |
| 2026-04-26 12:58 | 3.42422 | 55.14450 | 36854 ft | 461 kts | 354° |
| 2026-04-26 12:58 | 3.48803 | 55.13983 | 36854 ft | 460 kts | 354° |
| 2026-04-26 12:59 | 3.55221 | 55.13514 | 36857 ft | 460 kts | 354° |
| 2026-04-26 12:59 | 3.61626 | 55.13046 | 36861 ft | 460 kts | 354° |
| 2026-04-26 13:00 | 3.68001 | 55.12580 | 36865 ft | 458 kts | 354° |
| 2026-04-26 13:00 | 3.74436 | 55.12109 | 36865 ft | 460 kts | 354° |
| 2026-04-26 13:01 | 3.80792 | 55.11644 | 36867 ft | 457 kts | 354° |
| 2026-04-26 13:01 | 3.87176 | 55.11177 | 36868 ft | 459 kts | 353° |
| 2026-04-26 13:02 | 3.93541 | 55.10711 | 36866 ft | 458 kts | 354° |
| 2026-04-26 13:02 | 3.99924 | 55.10244 | 36868 ft | 457 kts | 354° |
| 2026-04-26 13:03 | 4.06285 | 55.09778 | 36863 ft | 457 kts | 354° |
| 2026-04-26 13:03 | 4.12688 | 55.09309 | 36867 ft | 457 kts | 354° |
| 2026-04-26 13:04 | 4.19072 | 55.08843 | 36860 ft | 458 kts | 354° |
| 2026-04-26 13:04 | 4.25421 | 55.08378 | 36849 ft | 457 kts | 354° |
| 2026-04-26 13:05 | 4.31813 | 55.07910 | 36850 ft | 456 kts | 354° |
| 2026-04-26 13:05 | 4.38126 | 55.07448 | 36849 ft | 456 kts | 354° |
| 2026-04-26 13:06 | 4.44498 | 55.06982 | 36848 ft | 455 kts | 354° |
| 2026-04-26 13:06 | 4.50827 | 55.06519 | 36846 ft | 454 kts | 354° |
| 2026-04-26 13:07 | 4.57152 | 55.06056 | 36847 ft | 454 kts | 354° |
| 2026-04-26 13:07 | 4.63530 | 55.05588 | 36843 ft | 456 kts | 354° |
| 2026-04-26 13:08 | 4.69853 | 55.05125 | 36846 ft | 455 kts | 354° |
| 2026-04-26 13:08 | 4.76195 | 55.04660 | 36847 ft | 455 kts | 354° |
| 2026-04-26 13:09 | 4.82536 | 55.04196 | 36845 ft | 455 kts | 354° |
| 2026-04-26 13:09 | 4.88859 | 55.03732 | 36843 ft | 453 kts | 354° |
| 2026-04-26 13:10 | 4.95152 | 55.03271 | 36843 ft | 454 kts | 355° |
| 2026-04-26 13:10 | 5.01457 | 55.02809 | 36842 ft | 454 kts | 355° |
| 2026-04-26 13:11 | 5.07763 | 55.02346 | 36840 ft | 452 kts | 355° |
| 2026-04-26 13:11 | 5.14099 | 55.01881 | 36847 ft | 453 kts | 355° |
| 2026-04-26 13:12 | 5.20437 | 55.01416 | 36850 ft | 453 kts | 355° |
| 2026-04-26 13:12 | 5.26713 | 55.00956 | 36854 ft | 451 kts | 355° |
| 2026-04-26 13:13 | 5.33053 | 55.00491 | 36863 ft | 452 kts | 355° |
| 2026-04-26 13:13 | 5.39305 | 55.00032 | 36866 ft | 450 kts | 355° |
| 2026-04-26 13:14 | 5.45598 | 54.99908 | 36868 ft | 451 kts | 360° |
| 2026-04-26 13:14 | 5.51885 | 54.99952 | 36867 ft | 449 kts | 360° |
| 2026-04-26 13:15 | 5.58163 | 54.99975 | 36864 ft | 451 kts | 360° |
| 2026-04-26 13:15 | 5.64449 | 54.99987 | 36867 ft | 450 kts | 360° |
| 2026-04-26 13:16 | 5.70756 | 54.99994 | 36863 ft | 449 kts | 0° |
| 2026-04-26 13:16 | 5.77027 | 54.99997 | 36869 ft | 450 kts | 360° |
| 2026-04-26 13:17 | 5.86389 | 54.99999 | 36866 ft | 447 kts | 0° |
| 2026-04-26 13:18 | 5.95766 | 54.99999 | 36865 ft | 448 kts | 0° |
| 2026-04-26 13:19 | 6.05144 | 55.00000 | 36863 ft | 447 kts | 0° |
| 2026-04-26 13:19 | 6.11384 | 55.00000 | 36868 ft | 447 kts | 0° |
| 2026-04-26 13:20 | 6.17625 | 55.00000 | 36870 ft | 445 kts | 1° |
| 2026-04-26 13:20 | 6.23858 | 55.00000 | 36869 ft | 445 kts | 1° |
| 2026-04-26 13:21 | 6.30090 | 55.00000 | 36869 ft | 447 kts | 1° |
| 2026-04-26 13:21 | 6.36327 | 55.00000 | 36868 ft | 446 kts | 1° |
| 2026-04-26 13:22 | 6.42549 | 55.00000 | 36862 ft | 446 kts | 1° |
| 2026-04-26 13:22 | 6.48779 | 55.00000 | 36859 ft | 445 kts | 1° |
| 2026-04-26 13:23 | 6.54991 | 55.00000 | 36851 ft | 446 kts | 1° |
| 2026-04-26 13:23 | 6.61213 | 55.00000 | 36847 ft | 446 kts | 1° |
| 2026-04-26 13:24 | 6.67438 | 55.00000 | 36844 ft | 446 kts | 1° |
| 2026-04-26 13:24 | 6.73690 | 55.00000 | 36845 ft | 444 kts | 1° |
| 2026-04-26 13:25 | 6.79883 | 55.00000 | 36844 ft | 446 kts | 1° |
| 2026-04-26 13:25 | 6.86088 | 55.00000 | 36849 ft | 445 kts | 1° |
| 2026-04-26 13:26 | 6.92335 | 55.00000 | 36859 ft | 445 kts | 1° |
| 2026-04-26 13:26 | 6.98547 | 55.00000 | 36866 ft | 446 kts | 2° |
| 2026-04-26 13:27 | 7.04603 | 55.00000 | 36863 ft | 446 kts | 2° |
| 2026-04-26 13:27 | 7.10823 | 55.00000 | 36862 ft | 444 kts | 2° |
| 2026-04-26 13:28 | 7.17043 | 55.00000 | 36873 ft | 444 kts | 2° |
| 2026-04-26 13:28 | 7.23226 | 55.00000 | 36870 ft | 443 kts | 2° |
| 2026-04-26 13:29 | 7.29410 | 55.00000 | 36870 ft | 442 kts | 2° |
| 2026-04-26 13:29 | 7.35600 | 55.00000 | 36870 ft | 442 kts | 2° |
| 2026-04-26 13:30 | 7.41790 | 55.00000 | 36868 ft | 444 kts | 2° |
| 2026-04-26 13:30 | 7.47975 | 55.00000 | 36866 ft | 444 kts | 2° |
| 2026-04-26 13:31 | 7.54195 | 55.00000 | 36869 ft | 443 kts | 2° |
| 2026-04-26 13:31 | 7.60367 | 55.00000 | 36862 ft | 443 kts | 2° |
| 2026-04-26 13:32 | 7.66540 | 55.00000 | 36866 ft | 442 kts | 2° |
| 2026-04-26 13:32 | 7.72707 | 55.00000 | 36865 ft | 442 kts | 2° |
| 2026-04-26 13:33 | 7.78889 | 55.00000 | 36863 ft | 443 kts | 2° |
| 2026-04-26 13:33 | 7.85102 | 55.00000 | 36860 ft | 444 kts | 2° |
| 2026-04-26 13:34 | 7.91289 | 55.00000 | 36864 ft | 443 kts | 2° |
| 2026-04-26 13:34 | 7.97467 | 55.00000 | 36862 ft | 441 kts | 2° |
| 2026-04-26 13:35 | 8.03613 | 55.00000 | 36863 ft | 441 kts | 2° |
| 2026-04-26 13:35 | 8.09794 | 55.00000 | 36861 ft | 440 kts | 2° |
| 2026-04-26 13:36 | 8.15949 | 55.00000 | 36876 ft | 443 kts | 3° |
| 2026-04-26 13:36 | 8.22155 | 55.00000 | 36875 ft | 442 kts | 3° |
| 2026-04-26 13:37 | 8.28334 | 55.00000 | 36874 ft | 443 kts | 3° |
| 2026-04-26 13:37 | 8.34507 | 55.00000 | 36874 ft | 441 kts | 3° |
| 2026-04-26 13:38 | 8.40649 | 55.00000 | 36879 ft | 442 kts | 3° |
| 2026-04-26 13:38 | 8.46855 | 55.00000 | 36886 ft | 443 kts | 2° |
| 2026-04-26 13:39 | 8.53020 | 55.00000 | 36885 ft | 442 kts | 2° |
| 2026-04-26 13:39 | 8.59202 | 55.00000 | 36887 ft | 442 kts | 2° |
| 2026-04-26 13:40 | 8.65363 | 55.00000 | 36887 ft | 442 kts | 3° |
| 2026-04-26 13:40 | 8.71546 | 55.00000 | 36885 ft | 441 kts | 3° |
| 2026-04-26 13:41 | 8.77743 | 55.00000 | 36887 ft | 442 kts | 3° |
| 2026-04-26 13:41 | 8.83921 | 55.00000 | 36880 ft | 443 kts | 3° |
| 2026-04-26 13:42 | 8.90079 | 55.00000 | 36883 ft | 443 kts | 3° |
| 2026-04-26 13:42 | 8.96257 | 55.00000 | 36882 ft | 444 kts | 3° |
| 2026-04-26 13:43 | 9.02436 | 55.00000 | 36883 ft | 441 kts | 3° |
| 2026-04-26 13:43 | 9.08589 | 55.00000 | 36878 ft | 441 kts | 3° |
| 2026-04-26 13:44 | 9.14775 | 55.00000 | 36883 ft | 442 kts | 3° |
| 2026-04-26 13:44 | 9.20935 | 55.00000 | 36890 ft | 441 kts | 3° |
| 2026-04-26 13:45 | 9.27101 | 55.00000 | 36896 ft | 441 kts | 3° |
| 2026-04-26 13:45 | 9.33268 | 55.00000 | 36888 ft | 441 kts | 3° |
| 2026-04-26 13:46 | 9.39475 | 55.00000 | 36890 ft | 443 kts | 3° |
| 2026-04-26 13:46 | 9.45612 | 55.00000 | 36891 ft | 439 kts | 3° |
| 2026-04-26 13:47 | 9.51759 | 55.00000 | 36886 ft | 440 kts | 3° |
| 2026-04-26 13:47 | 9.57891 | 55.00000 | 36878 ft | 438 kts | 3° |
| 2026-04-26 13:48 | 9.64011 | 55.00000 | 36886 ft | 439 kts | 3° |
| 2026-04-26 13:48 | 9.70112 | 55.00000 | 36894 ft | 437 kts | 3° |
| 2026-04-26 13:49 | 9.76211 | 55.00000 | 36893 ft | 438 kts | 3° |
| 2026-04-26 13:49 | 9.82311 | 55.00000 | 36898 ft | 436 kts | 3° |
| 2026-04-26 13:50 | 9.88411 | 55.00000 | 36887 ft | 438 kts | 3° |
| 2026-04-26 13:50 | 9.94517 | 55.00000 | 36885 ft | 437 kts | 3° |
| 2026-04-26 13:51 | 10.00605 | 55.00000 | 36884 ft | 436 kts | 3° |
| 2026-04-26 13:51 | 10.06711 | 55.00000 | 36879 ft | 435 kts | 3° |
| 2026-04-26 13:52 | 10.12795 | 55.00000 | 36894 ft | 436 kts | 3° |
| 2026-04-26 13:52 | 10.18885 | 55.00000 | 36895 ft | 436 kts | 3° |
| 2026-04-26 13:53 | 10.24991 | 55.00000 | 36888 ft | 437 kts | 3° |
| 2026-04-26 13:53 | 10.31104 | 55.00000 | 36892 ft | 437 kts | 3° |
| 2026-04-26 13:54 | 10.37188 | 55.00000 | 36889 ft | 437 kts | 3° |
| 2026-04-26 13:54 | 10.43271 | 55.00000 | 36887 ft | 435 kts | 3° |
| 2026-04-26 13:55 | 10.51377 | 55.00000 | 36889 ft | 437 kts | 3° |
| 2026-04-26 13:56 | 10.61564 | 55.00000 | 36888 ft | 437 kts | 3° |
| 2026-04-26 13:56 | 10.67658 | 55.00000 | 36887 ft | 437 kts | 2° |
| 2026-04-26 13:57 | 10.73761 | 55.00000 | 36885 ft | 436 kts | 2° |
| 2026-04-26 13:57 | 10.79828 | 55.00000 | 36885 ft | 437 kts | 3° |
| 2026-04-26 13:58 | 10.85939 | 55.00000 | 36884 ft | 437 kts | 3° |
| 2026-04-26 13:58 | 10.92070 | 55.00000 | 36883 ft | 438 kts | 3° |
| 2026-04-26 13:59 | 10.98177 | 55.00000 | 36883 ft | 437 kts | 3° |
| 2026-04-26 13:59 | 11.04258 | 55.00000 | 36882 ft | 437 kts | 3° |
| 2026-04-26 14:00 | 11.16470 | 55.00000 | 36893 ft | 437 kts | 3° |
| 2026-04-26 14:01 | 11.22555 | 55.00000 | 36893 ft | 438 kts | 3° |
| 2026-04-26 14:01 | 11.28675 | 55.00000 | 36891 ft | 437 kts | 2° |
| 2026-04-26 14:02 | 11.34778 | 55.00000 | 36891 ft | 437 kts | 3° |
| 2026-04-26 14:02 | 11.40887 | 55.00000 | 36890 ft | 437 kts | 2° |
| 2026-04-26 14:03 | 11.47006 | 55.00000 | 36894 ft | 437 kts | 2° |
| 2026-04-26 14:03 | 11.53092 | 55.00000 | 36897 ft | 437 kts | 2° |
| 2026-04-26 14:04 | 11.59190 | 55.00000 | 36901 ft | 437 kts | 2° |
| 2026-04-26 14:04 | 11.65314 | 55.00000 | 36908 ft | 437 kts | 2° |
| 2026-04-26 14:05 | 11.71419 | 55.00000 | 36905 ft | 437 kts | 2° |
| 2026-04-26 14:05 | 11.77500 | 55.00000 | 36906 ft | 436 kts | 2° |
| 2026-04-26 14:06 | 11.83588 | 55.00000 | 36906 ft | 439 kts | 2° |
| 2026-04-26 14:06 | 11.89691 | 55.00000 | 36907 ft | 438 kts | 2° |
| 2026-04-26 14:07 | 11.95840 | 55.00000 | 36903 ft | 438 kts | 2° |
| 2026-04-26 14:07 | 12.01908 | 55.00232 | 36906 ft | 436 kts | 8° |
| 2026-04-26 14:08 | 12.07941 | 55.00979 | 36903 ft | 435 kts | 9° |
| 2026-04-26 14:08 | 12.14020 | 55.01739 | 36912 ft | 436 kts | 9° |
| 2026-04-26 14:09 | 12.20027 | 55.02488 | 36913 ft | 436 kts | 9° |
| 2026-04-26 14:09 | 12.26072 | 55.03242 | 36912 ft | 436 kts | 9° |
| 2026-04-26 14:10 | 12.32086 | 55.03991 | 36911 ft | 434 kts | 8° |
| 2026-04-26 14:10 | 12.38134 | 55.04745 | 36911 ft | 434 kts | 8° |
| 2026-04-26 14:11 | 12.47144 | 55.05868 | 36909 ft | 436 kts | 8° |
| 2026-04-26 14:11 | 12.53205 | 55.06625 | 36909 ft | 436 kts | 8° |
| 2026-04-26 14:12 | 12.59210 | 55.07374 | 36908 ft | 435 kts | 8° |
| 2026-04-26 14:12 | 12.65267 | 55.08130 | 36907 ft | 435 kts | 8° |
| 2026-04-26 14:13 | 12.74300 | 55.09259 | 36899 ft | 435 kts | 8° |
| 2026-04-26 14:14 | 12.80323 | 55.10012 | 36894 ft | 435 kts | 8° |
| 2026-04-26 14:14 | 12.86381 | 55.10770 | 36885 ft | 435 kts | 8° |
| 2026-04-26 14:15 | 12.92386 | 55.11521 | 36884 ft | 435 kts | 8° |
| 2026-04-26 14:15 | 12.98416 | 55.12276 | 36883 ft | 434 kts | 8° |
| 2026-04-26 14:16 | 13.04442 | 55.13031 | 36881 ft | 436 kts | 8° |
| 2026-04-26 14:16 | 13.10499 | 55.13790 | 36883 ft | 436 kts | 8° |
| 2026-04-26 14:17 | 13.16515 | 55.14544 | 36891 ft | 435 kts | 8° |
| 2026-04-26 14:17 | 13.22525 | 55.15298 | 36892 ft | 435 kts | 8° |
| 2026-04-26 14:18 | 13.28571 | 55.16056 | 36893 ft | 434 kts | 8° |
| 2026-04-26 14:18 | 13.34603 | 55.16814 | 36896 ft | 435 kts | 8° |
| 2026-04-26 14:19 | 13.40602 | 55.17567 | 36904 ft | 435 kts | 8° |
| 2026-04-26 14:19 | 13.46621 | 55.18324 | 36907 ft | 436 kts | 8° |
| 2026-04-26 14:20 | 13.52675 | 55.19085 | 36907 ft | 434 kts | 8° |
| 2026-04-26 14:20 | 13.58693 | 55.19843 | 36907 ft | 436 kts | 8° |
| 2026-04-26 14:21 | 13.64705 | 55.20599 | 36906 ft | 435 kts | 8° |
| 2026-04-26 14:21 | 13.70772 | 55.21363 | 36905 ft | 436 kts | 8° |
| 2026-04-26 14:22 | 13.76802 | 55.22123 | 36905 ft | 434 kts | 8° |
| 2026-04-26 14:22 | 13.82822 | 55.22882 | 36902 ft | 434 kts | 8° |
| 2026-04-26 14:23 | 13.88833 | 55.23640 | 36905 ft | 435 kts | 8° |
| 2026-04-26 14:23 | 13.94838 | 55.24390 | 36904 ft | 435 kts | 8° |
| 2026-04-26 14:24 | 14.00904 | 55.25142 | 36902 ft | 435 kts | 8° |
| 2026-04-26 14:24 | 14.06922 | 55.25887 | 36898 ft | 435 kts | 8° |
| 2026-04-26 14:25 | 14.12967 | 55.26637 | 36911 ft | 435 kts | 8° |
| 2026-04-26 14:25 | 14.18990 | 55.27385 | 36912 ft | 435 kts | 8° |
| 2026-04-26 14:26 | 14.24993 | 55.28131 | 36912 ft | 434 kts | 8° |
| 2026-04-26 14:26 | 14.31053 | 55.28884 | 36908 ft | 434 kts | 8° |
| 2026-04-26 14:27 | 14.37052 | 55.29630 | 36913 ft | 434 kts | 8° |
| 2026-04-26 14:27 | 14.43054 | 55.30378 | 36911 ft | 434 kts | 8° |
| 2026-04-26 14:28 | 14.49083 | 55.31128 | 36908 ft | 434 kts | 8° |
| 2026-04-26 14:28 | 14.55107 | 55.31879 | 36907 ft | 434 kts | 8° |
| 2026-04-26 14:29 | 14.61116 | 55.32628 | 36910 ft | 434 kts | 8° |
| 2026-04-26 14:29 | 14.67117 | 55.33376 | 36906 ft | 434 kts | 8° |
| 2026-04-26 14:30 | 14.73119 | 55.34125 | 36897 ft | 434 kts | 8° |
| 2026-04-26 14:30 | 14.79148 | 55.34878 | 36889 ft | 432 kts | 7° |
| 2026-04-26 14:31 | 14.85143 | 55.35627 | 36884 ft | 433 kts | 8° |
| 2026-04-26 14:31 | 14.91132 | 55.36375 | 36885 ft | 433 kts | 8° |
| 2026-04-26 14:32 | 14.97173 | 55.37131 | 36882 ft | 432 kts | 8° |
| 2026-04-26 14:32 | 15.03168 | 55.37881 | 36879 ft | 432 kts | 8° |
| 2026-04-26 14:33 | 15.09156 | 55.38631 | 36881 ft | 432 kts | 7° |
| 2026-04-26 14:33 | 15.15172 | 55.39385 | 36891 ft | 433 kts | 7° |
| 2026-04-26 14:34 | 15.21187 | 55.40136 | 36893 ft | 433 kts | 7° |
| 2026-04-26 14:34 | 15.27165 | 55.40871 | 36891 ft | 433 kts | 7° |
| 2026-04-26 14:35 | 15.33193 | 55.41614 | 36896 ft | 432 kts | 7° |
| 2026-04-26 14:35 | 15.39197 | 55.42354 | 36903 ft | 432 kts | 7° |
| 2026-04-26 14:36 | 15.45177 | 55.43092 | 36905 ft | 432 kts | 7° |
| 2026-04-26 14:36 | 15.51141 | 55.43829 | 36909 ft | 432 kts | 7° |
| 2026-04-26 14:37 | 15.57151 | 55.44571 | 36907 ft | 431 kts | 7° |
| 2026-04-26 14:37 | 15.63121 | 55.45310 | 36908 ft | 432 kts | 7° |
| 2026-04-26 14:38 | 15.69121 | 55.46052 | 36906 ft | 431 kts | 7° |
| 2026-04-26 14:38 | 15.75066 | 55.46788 | 36905 ft | 431 kts | 7° |
| 2026-04-26 14:39 | 15.81081 | 55.47533 | 36904 ft | 431 kts | 7° |
| 2026-04-26 14:39 | 15.87064 | 55.48275 | 36905 ft | 432 kts | 7° |
| 2026-04-26 14:40 | 15.93071 | 55.49020 | 36903 ft | 431 kts | 7° |
| 2026-04-26 14:40 | 15.99036 | 55.49760 | 36904 ft | 431 kts | 7° |
| 2026-04-26 14:41 | 16.04996 | 55.50500 | 36903 ft | 430 kts | 7° |
| 2026-04-26 14:41 | 16.10957 | 55.51241 | 36904 ft | 430 kts | 7° |
| 2026-04-26 14:42 | 16.16934 | 55.51984 | 36913 ft | 431 kts | 7° |
| 2026-04-26 14:42 | 16.22909 | 55.52727 | 36911 ft | 432 kts | 7° |
| 2026-04-26 14:43 | 16.28886 | 55.53471 | 36911 ft | 431 kts | 7° |
| 2026-04-26 14:43 | 16.34859 | 55.54215 | 36908 ft | 431 kts | 7° |
| 2026-04-26 14:44 | 16.40867 | 55.54964 | 36904 ft | 431 kts | 7° |
| 2026-04-26 14:44 | 16.46821 | 55.55706 | 36901 ft | 431 kts | 7° |
| 2026-04-26 14:45 | 16.52769 | 55.56448 | 36895 ft | 430 kts | 7° |
| 2026-04-26 14:45 | 16.58743 | 55.57194 | 36892 ft | 430 kts | 7° |
| 2026-04-26 14:46 | 16.64717 | 55.57941 | 36893 ft | 430 kts | 7° |
| 2026-04-26 14:46 | 16.70722 | 55.58691 | 36887 ft | 430 kts | 7° |
| 2026-04-26 14:47 | 16.76709 | 55.59440 | 36886 ft | 431 kts | 7° |
| 2026-04-26 14:47 | 16.82704 | 55.60191 | 36885 ft | 431 kts | 6° |
| 2026-04-26 14:48 | 16.88662 | 55.60937 | 36884 ft | 430 kts | 7° |
| 2026-04-26 14:48 | 16.94626 | 55.61693 | 36886 ft | 430 kts | 7° |
| 2026-04-26 14:49 | 17.00575 | 55.62449 | 36881 ft | 431 kts | 7° |
| 2026-04-26 14:49 | 17.06574 | 55.63211 | 36880 ft | 431 kts | 7° |
| 2026-04-26 14:50 | 17.12553 | 55.63972 | 36893 ft | 430 kts | 6° |
| 2026-04-26 14:50 | 17.18524 | 55.64731 | 36892 ft | 430 kts | 7° |
| 2026-04-26 14:51 | 17.24530 | 55.65496 | 36890 ft | 431 kts | 6° |
| 2026-04-26 14:51 | 17.30473 | 55.66253 | 36886 ft | 429 kts | 6° |
| 2026-04-26 14:52 | 17.36459 | 55.67016 | 36885 ft | 432 kts | 7° |
| 2026-04-26 14:52 | 17.42446 | 55.67780 | 36888 ft | 431 kts | 7° |
| 2026-04-26 14:53 | 17.48495 | 55.68552 | 36900 ft | 432 kts | 7° |
| 2026-04-26 14:53 | 17.54514 | 55.69321 | 36897 ft | 431 kts | 6° |
| 2026-04-26 14:54 | 17.60497 | 55.70086 | 36899 ft | 432 kts | 6° |
| 2026-04-26 14:54 | 17.66471 | 55.70850 | 36901 ft | 433 kts | 6° |
| 2026-04-26 14:55 | 17.72471 | 55.71618 | 36897 ft | 432 kts | 6° |
| 2026-04-26 14:55 | 17.78484 | 55.72388 | 36901 ft | 432 kts | 6° |
| 2026-04-26 14:56 | 17.84473 | 55.73155 | 36912 ft | 431 kts | 6° |
| 2026-04-26 14:56 | 17.90444 | 55.73921 | 36928 ft | 430 kts | 6° |
| 2026-04-26 14:57 | 17.96429 | 55.74689 | 36931 ft | 433 kts | 6° |
| 2026-04-26 14:57 | 18.02366 | 55.75978 | 36939 ft | 434 kts | 13° |
| 2026-04-26 14:58 | 18.08246 | 55.77537 | 36941 ft | 433 kts | 13° |
| 2026-04-26 14:58 | 18.14083 | 55.79085 | 36946 ft | 434 kts | 13° |
| 2026-04-26 14:59 | 18.19949 | 55.80640 | 36952 ft | 434 kts | 13° |
| 2026-04-26 14:59 | 18.25833 | 55.82200 | 36946 ft | 434 kts | 13° |
| 2026-04-26 15:00 | 18.31716 | 55.83760 | 36935 ft | 435 kts | 13° |
| 2026-04-26 15:00 | 18.37575 | 55.85315 | 36927 ft | 434 kts | 13° |
| 2026-04-26 15:01 | 18.43449 | 55.86875 | 36921 ft | 434 kts | 12° |
| 2026-04-26 15:01 | 18.49327 | 55.88437 | 36923 ft | 435 kts | 12° |
| 2026-04-26 15:02 | 18.55208 | 55.90001 | 36915 ft | 435 kts | 12° |
| 2026-04-26 15:02 | 18.61105 | 55.91570 | 36916 ft | 436 kts | 12° |
| 2026-04-26 15:03 | 18.67017 | 55.93144 | 36910 ft | 437 kts | 12° |
| 2026-04-26 15:03 | 18.72895 | 55.94711 | 36916 ft | 437 kts | 12° |
| 2026-04-26 15:04 | 18.78820 | 55.96291 | 36917 ft | 437 kts | 12° |
| 2026-04-26 15:04 | 18.84752 | 55.97874 | 36912 ft | 437 kts | 12° |
| 2026-04-26 15:05 | 18.90666 | 55.99453 | 36913 ft | 438 kts | 12° |
| 2026-04-26 15:05 | 18.96598 | 56.01039 | 36908 ft | 438 kts | 12° |
| 2026-04-26 15:06 | 19.02571 | 56.02637 | 36909 ft | 438 kts | 12° |
| 2026-04-26 15:06 | 19.08488 | 56.04222 | 36901 ft | 437 kts | 12° |
| 2026-04-26 15:07 | 19.17371 | 56.06603 | 36909 ft | 436 kts | 12° |
| 2026-04-26 15:07 | 19.23291 | 56.08191 | 36905 ft | 436 kts | 12° |
| 2026-04-26 15:08 | 19.29195 | 56.09776 | 36905 ft | 437 kts | 12° |
| 2026-04-26 15:08 | 19.35096 | 56.11362 | 36897 ft | 436 kts | 12° |
| 2026-04-26 15:09 | 19.40999 | 56.12950 | 36891 ft | 437 kts | 12° |
| 2026-04-26 15:09 | 19.46930 | 56.14546 | 36877 ft | 437 kts | 12° |
| 2026-04-26 15:10 | 19.51870 | 56.15876 | 36878 ft | 436 kts | 12° |
| 2026-04-26 15:10 | 19.58770 | 56.17735 | 36868 ft | 438 kts | 12° |
| 2026-04-26 15:11 | 19.64706 | 56.19337 | 36870 ft | 438 kts | 12° |
| 2026-04-26 15:11 | 19.70630 | 56.20935 | 36867 ft | 438 kts | 12° |
| 2026-04-26 15:12 | 19.76550 | 56.22535 | 36864 ft | 437 kts | 12° |
| 2026-04-26 15:12 | 19.82496 | 56.24142 | 36862 ft | 437 kts | 11° |
| 2026-04-26 15:13 | 19.88430 | 56.25748 | 36860 ft | 438 kts | 12° |
| 2026-04-26 15:13 | 19.94366 | 56.27354 | 36853 ft | 439 kts | 11° |
| 2026-04-26 15:14 | 20.00454 | 56.28073 | 36856 ft | 435 kts | 359° |
| 2026-04-26 15:14 | 20.06515 | 56.28098 | 36854 ft | 434 kts | 358° |
| 2026-04-26 15:15 | 20.12590 | 56.28115 | 36865 ft | 434 kts | 358° |
| 2026-04-26 15:15 | 20.18673 | 56.28130 | 36863 ft | 436 kts | 358° |
| 2026-04-26 15:16 | 20.24754 | 56.28146 | 36861 ft | 435 kts | 358° |
| 2026-04-26 15:16 | 20.30869 | 56.28161 | 36865 ft | 435 kts | 358° |
| 2026-04-26 15:17 | 20.35926 | 56.28173 | 36871 ft | 434 kts | 358° |
| 2026-04-26 15:17 | 20.43049 | 56.28191 | 36871 ft | 436 kts | 358° |
| 2026-04-26 15:18 | 20.49144 | 56.28206 | 36871 ft | 435 kts | 358° |
| 2026-04-26 15:18 | 20.55254 | 56.28185 | 36867 ft | 435 kts | 354° |
| 2026-04-26 15:19 | 20.61253 | 56.27411 | 36873 ft | 434 kts | 351° |
| 2026-04-26 15:19 | 20.67271 | 56.26539 | 36869 ft | 434 kts | 351° |
| 2026-04-26 15:20 | 20.73280 | 56.25668 | 36868 ft | 434 kts | 351° |
| 2026-04-26 15:20 | 20.79295 | 56.24795 | 36858 ft | 434 kts | 351° |
| 2026-04-26 15:21 | 20.85310 | 56.23923 | 36845 ft | 434 kts | 350° |
| 2026-04-26 15:21 | 20.91292 | 56.23055 | 36841 ft | 434 kts | 351° |
| 2026-04-26 15:22 | 20.97312 | 56.22181 | 36833 ft | 433 kts | 351° |
| 2026-04-26 15:22 | 21.03309 | 56.21309 | 36833 ft | 434 kts | 350° |
| 2026-04-26 15:23 | 21.09329 | 56.20433 | 36825 ft | 435 kts | 350° |
| 2026-04-26 15:23 | 21.15381 | 56.19552 | 36833 ft | 435 kts | 350° |
| 2026-04-26 15:24 | 21.21403 | 56.18674 | 36829 ft | 435 kts | 350° |
| 2026-04-26 15:24 | 21.27448 | 56.17793 | 36826 ft | 435 kts | 350° |
| 2026-04-26 15:25 | 21.32480 | 56.17056 | 36821 ft | 435 kts | 350° |
| 2026-04-26 15:25 | 21.39541 | 56.16020 | 36820 ft | 436 kts | 350° |
| 2026-04-26 15:26 | 21.45629 | 56.15126 | 36821 ft | 436 kts | 350° |
| 2026-04-26 15:26 | 21.51654 | 56.14241 | 36819 ft | 436 kts | 350° |
| 2026-04-26 15:27 | 21.57687 | 56.13354 | 36819 ft | 436 kts | 350° |
| 2026-04-26 15:27 | 21.63736 | 56.12463 | 36819 ft | 437 kts | 350° |
| 2026-04-26 15:28 | 21.69761 | 56.11576 | 36816 ft | 437 kts | 350° |
| 2026-04-26 15:28 | 21.75859 | 56.10677 | 36816 ft | 437 kts | 349° |
| 2026-04-26 15:29 | 21.81916 | 56.09783 | 36819 ft | 439 kts | 350° |
| 2026-04-26 15:30 | 21.94075 | 56.07987 | 36820 ft | 437 kts | 349° |
| 2026-04-26 15:30 | 22.00132 | 56.07091 | 36822 ft | 438 kts | 349° |
| 2026-04-26 15:31 | 22.09226 | 56.05746 | 36824 ft | 438 kts | 349° |
| 2026-04-26 15:32 | 22.17351 | 56.04543 | 36837 ft | 438 kts | 349° |
| 2026-04-26 15:32 | 22.24441 | 56.03492 | 36836 ft | 438 kts | 349° |
| 2026-04-26 15:33 | 22.30461 | 56.02599 | 36838 ft | 438 kts | 349° |
| 2026-04-26 15:33 | 22.36543 | 56.01696 | 36839 ft | 439 kts | 349° |
| 2026-04-26 15:34 | 22.42641 | 56.00794 | 36834 ft | 438 kts | 349° |
| 2026-04-26 15:34 | 22.48721 | 55.99897 | 36835 ft | 439 kts | 349° |
| 2026-04-26 15:35 | 22.54814 | 55.98997 | 36839 ft | 439 kts | 349° |
| 2026-04-26 15:35 | 22.60878 | 55.98100 | 36842 ft | 438 kts | 349° |
| 2026-04-26 15:36 | 22.66984 | 55.97197 | 36840 ft | 439 kts | 349° |
| 2026-04-26 15:36 | 22.73030 | 55.96301 | 36849 ft | 439 kts | 349° |
| 2026-04-26 15:37 | 22.79159 | 55.95392 | 36854 ft | 439 kts | 349° |
| 2026-04-26 15:37 | 22.85237 | 55.94486 | 36857 ft | 440 kts | 349° |
| 2026-04-26 15:38 | 22.91332 | 55.93574 | 36862 ft | 440 kts | 348° |
| 2026-04-26 15:38 | 22.97411 | 55.92664 | 36860 ft | 439 kts | 348° |
| 2026-04-26 15:39 | 23.03519 | 55.91749 | 36866 ft | 438 kts | 348° |
| 2026-04-26 15:39 | 23.08590 | 55.90986 | 36866 ft | 439 kts | 348° |
| 2026-04-26 15:40 | 23.15694 | 55.89914 | 36876 ft | 442 kts | 348° |
| 2026-04-26 15:40 | 23.21768 | 55.88998 | 36883 ft | 440 kts | 348° |
| 2026-04-26 15:41 | 23.27853 | 55.88079 | 36882 ft | 442 kts | 348° |
| 2026-04-26 15:41 | 23.33961 | 55.87156 | 36899 ft | 441 kts | 348° |
| 2026-04-26 15:42 | 23.40071 | 55.86232 | 36898 ft | 441 kts | 348° |
| 2026-04-26 15:42 | 23.46174 | 55.85309 | 36905 ft | 440 kts | 348° |
| 2026-04-26 15:43 | 23.52259 | 55.84386 | 36905 ft | 442 kts | 348° |
| 2026-04-26 15:44 | 23.61441 | 55.82991 | 36902 ft | 442 kts | 348° |
| 2026-04-26 15:44 | 23.70643 | 55.81838 | 36898 ft | 446 kts | 356° |
| 2026-04-26 15:45 | 23.80035 | 55.82700 | 36904 ft | 450 kts | 0° |
| 2026-04-26 15:46 | 23.89452 | 55.83683 | 36913 ft | 450 kts | 0° |
| 2026-04-26 15:46 | 23.94683 | 55.84229 | 36919 ft | 454 kts | 0° |